Norfolk International Airport Airport (ORF)

 

Airport Diagram
Current Weather/Forecast (VFR Conditions)
METAR KORF 241951Z 02013KT 10SM CLR 24/15 A2981 RMK AO2 SLP095 T02390150
TAF KORF 241743Z 2418/2518 30007KT P6SM SCT150 FM242000 03007KT P6SM SCT050 BKN150 FM250000 08006KT P6SM SCT050 BKN150 FM251200 10008KT P6SM BKN200

All Charts
General
Chart Name Download
AIRPORT DIAGRAM
TAKEOFF MINIMUMS
ALTERNATE MINIMUMS

Departures
Chart Name Download
KISRR THREE

Arrivals
Chart Name Download
DRONE TWO
DRONE TWO, CONT.1
TERKS TWO

Approaches
Chart Name Download
ILS OR LOC RWY 05
ILS OR LOC RWY 23
RNAV (RNP) Y RWY 05
RNAV (RNP) Y RWY 23
RNAV (GPS) RWY 14
RNAV (GPS) RWY 32
RNAV (GPS) Z RWY 05
RNAV (GPS) Z RWY 23
VOR/DME RWY 32
VOR RWY 14
RIVER VISUAL RWY 05


Inbound Traffic (Arrivals)
Callsign Aircraft Rules Departure Route
3486D PC12 VFR KABE ETX V29 SBY V1 CCV

Outbound Traffic (Departures)
Callsign Aircraft Rules Destination Route
CJA1034 B738/L IFR CYQB ORF J121 SAWED J209 VILLS J79 JFK J37 ATHOS COVAN GUBID OMVAR1